Time;durP1;ratioP1;P1;durP2;ratioP2;P2;SDS_P1;SDS_P2;PMS_P1;PMS_P2;Temp;Humidity;BMP_temperature;BMP_pressure;BME280_temperature;BME280_humidity;BME280_pressure;Samples;Min_cycle;Max_cycle;Signal;HPM_P1;HPM_P2
2022/11/01 00:00:43;;;;;;;;;;;18.60;58.10;;;;;;5073611;28;19915;-88
2022/11/01 00:03:08;;;;;;;;;;;18.60;58.30;;;;;;5073954;28;20359;-89
2022/11/01 00:05:36;;;;;;;;;;;18.60;58.30;;;;;;5074130;28;19919;-89
2022/11/01 00:08:02;;;;;;;;;;;18.70;58.40;;;;;;5073621;28;19909;-89
2022/11/01 00:10:27;;;;;;;;;;;18.70;58.40;;;;;;5072258;28;20287;-88
2022/11/01 00:12:53;;;;;;;;;;;18.70;58.40;;;;;;5072093;28;19915;-85
2022/11/01 00:15:19;;;;;;;;;;;18.70;58.30;;;;;;5060778;28;20371;-88
2022/11/01 00:17:48;;;;;;;;;;;18.80;58.10;;;;;;5072258;28;19913;-88
2022/11/01 00:20:13;;;;;;;;;;;18.70;58.00;;;;;;5055803;28;19982;-88
2022/11/01 00:22:39;;;;;;;;;;;18.70;57.90;;;;;;5073584;28;20333;-87
2022/11/01 00:25:05;;;;;;;;;;;18.80;57.80;;;;;;5075178;28;20432;-88
2022/11/01 00:27:30;;;;;;;;;;;18.80;57.70;;;;;;5068584;28;19960;-88
2022/11/01 00:29:56;;;;;;;;;;;18.80;57.60;;;;;;5051605;28;19929;-87
2022/11/01 00:32:22;;;;;;;;;;;18.80;57.70;;;;;;5065059;28;19908;-89
2022/11/01 00:34:48;;;;;;;;;;;18.70;57.60;;;;;;5066441;28;19917;-88
2022/11/01 00:37:13;;;;;;;;;;;18.80;57.70;;;;;;5062119;28;20469;-89
2022/11/01 00:39:39;;;;;;;;;;;18.70;57.90;;;;;;5073342;28;19917;-89
2022/11/01 00:42:06;;;;;;;;;;;18.70;57.80;;;;;;5059153;28;19908;-89
2022/11/01 00:44:32;;;;;;;;;;;18.70;57.70;;;;;;5058786;28;19974;-88
2022/11/01 00:46:57;;;;;;;;;;;18.70;57.60;;;;;;5072863;28;19912;-89
2022/11/01 00:49:23;;;;;;;;;;;18.70;57.60;;;;;;5054902;28;20334;-88
2022/11/01 00:51:51;;;;;;;;;;;18.70;57.60;;;;;;5054165;28;19920;-88
2022/11/01 00:54:16;;;;;;;;;;;18.60;57.60;;;;;;5057203;28;19917;-89
2022/11/01 00:56:42;;;;;;;;;;;18.60;57.70;;;;;;5071178;28;19974;-89
2022/11/01 00:59:08;;;;;;;;;;;18.50;57.80;;;;;;5069138;28;19923;-89
2022/11/01 01:01:34;;;;;;;;;;;18.50;57.80;;;;;;5056756;28;20283;-89
2022/11/01 01:03:59;;;;;;;;;;;18.40;57.80;;;;;;5062059;28;19917;-87
2022/11/01 01:06:25;;;;;;;;;;;18.40;57.70;;;;;;5068750;28;19932;-89
2022/11/01 01:08:51;;;;;;;;;;;18.30;57.80;;;;;;5055787;28;19931;-89
2022/11/01 01:11:16;;;;;;;;;;;18.30;57.80;;;;;;5061188;28;19913;-88
2022/11/01 01:13:42;;;;;;;;;;;18.30;57.90;;;;;;5053266;28;19932;-88
2022/11/01 01:16:09;;;;;;;;;;;18.30;58.00;;;;;;5071254;28;19916;-87
2022/11/01 01:18:35;;;;;;;;;;;18.30;58.10;;;;;;5072343;28;19920;-89
2022/11/01 01:21:04;;;;;;;;;;;18.30;58.10;;;;;;5074794;28;20656;-87
2022/11/01 01:23:29;;;;;;;;;;;18.30;58.00;;;;;;5093235;28;20427;-89
2022/11/01 01:25:55;;;;;;;;;;;18.30;57.90;;;;;;5068197;28;19912;-88
2022/11/01 01:28:21;;;;;;;;;;;18.30;57.90;;;;;;5068557;28;20310;-87
2022/11/01 01:30:47;;;;;;;;;;;18.30;57.90;;;;;;5060712;28;19967;-89
2022/11/01 01:33:12;;;;;;;;;;;18.30;58.00;;;;;;5055049;28;19909;-87
2022/11/01 01:35:38;;;;;;;;;;;18.30;57.90;;;;;;5072146;28;19959;-89
2022/11/01 01:38:04;;;;;;;;;;;18.40;57.80;;;;;;5072474;28;20374;-88
2022/11/01 01:40:33;;;;;;;;;;;18.40;57.70;;;;;;5073854;28;19973;-88
2022/11/01 01:42:59;;;;;;;;;;;18.50;57.70;;;;;;5071509;28;20364;-88
2022/11/01 01:45:30;;;;;;;;;;;18.50;57.70;;;;;;5061626;28;19967;-88
2022/11/01 01:47:59;;;;;;;;;;;18.60;57.70;;;;;;5052165;28;20584;-88
2022/11/01 01:50:24;;;;;;;;;;;18.60;57.70;;;;;;5052692;28;19955;-88
2022/11/01 01:52:53;;;;;;;;;;;18.60;57.70;;;;;;5051018;28;19908;-89
2022/11/01 01:55:21;;;;;;;;;;;18.70;57.60;;;;;;5063838;28;20368;-89
2022/11/01 01:57:47;;;;;;;;;;;18.70;57.60;;;;;;5055347;28;20031;-89
2022/11/01 02:00:13;;;;;;;;;;;18.70;57.60;;;;;;5060126;28;19966;-88
2022/11/01 02:02:40;;;;;;;;;;;18.80;57.70;;;;;;5051626;28;19945;-87
2022/11/01 02:05:32;;;;;;;;;;;18.80;57.80;;;;;;5058088;28;19920;-88
2022/11/01 02:07:58;;;;;;;;;;;18.90;57.70;;;;;;5057513;28;20006;-88
2022/11/01 02:10:23;;;;;;;;;;;19.00;57.60;;;;;;5072604;28;20015;-88
2022/11/01 02:12:49;;;;;;;;;;;19.10;57.50;;;;;;5057660;28;19966;-89
2022/11/01 02:15:16;;;;;;;;;;;19.10;57.40;;;;;;5050383;28;19919;-88
2022/11/01 02:17:41;;;;;;;;;;;19.20;57.40;;;;;;5050411;28;19959;-87
2022/11/01 02:20:28;;;;;;;;;;;19.20;57.30;;;;;;5083076;28;20391;-89
2022/11/01 02:23:02;;;;;;;;;;;19.30;57.10;;;;;;5073955;28;20367;-88
2022/11/01 02:25:34;;;;;;;;;;;19.30;57.10;;;;;;5073088;28;19920;-87
2022/11/01 02:28:19;;;;;;;;;;;19.30;56.90;;;;;;5067160;28;19909;-88
2022/11/01 02:31:05;;;;;;;;;;;19.30;56.90;;;;;;5051092;28;19925;-87
2022/11/01 02:33:35;;;;;;;;;;;19.40;56.80;;;;;;5035815;28;20419;-89
2022/11/01 02:36:14;;;;;;;;;;;19.40;56.70;;;;;;5060504;28;19913;-87
2022/11/01 02:38:46;;;;;;;;;;;19.50;56.70;;;;;;5057209;28;19921;-89
2022/11/01 02:41:23;;;;;;;;;;;19.50;56.80;;;;;;5077975;28;19915;-87
2022/11/01 02:43:53;;;;;;;;;;;19.60;56.70;;;;;;5082956;28;19948;-87
2022/11/01 02:49:04;;;;;;;;;;;19.70;56.70;;;;;;5050808;28;19951;-88
2022/11/01 02:51:31;;;;;;;;;;;19.70;56.60;;;;;;5051152;28;19908;-87
2022/11/01 02:54:07;;;;;;;;;;;19.80;56.50;;;;;;5054249;28;19924;-88
2022/11/01 02:56:33;;;;;;;;;;;19.80;56.30;;;;;;5070784;28;20256;-87
2022/11/01 02:59:00;;;;;;;;;;;19.80;56.20;;;;;;5075209;28;20366;-88
2022/11/01 03:01:27;;;;;;;;;;;19.90;56.30;;;;;;5073939;28;19919;-89
2022/11/01 03:03:54;;;;;;;;;;;19.90;56.20;;;;;;5076457;28;19943;-89
2022/11/01 03:06:26;;;;;;;;;;;19.90;56.30;;;;;;5075088;28;19909;-89
2022/11/01 03:08:56;;;;;;;;;;;20.00;56.20;;;;;;5072726;28;19924;-88
2022/11/01 03:11:23;;;;;;;;;;;20.00;56.20;;;;;;5074812;28;19912;-87
2022/11/01 03:13:56;;;;;;;;;;;20.00;56.10;;;;;;5074266;28;19913;-87
2022/11/01 03:16:40;;;;;;;;;;;20.10;56.00;;;;;;5074380;28;19920;-87
2022/11/01 03:19:09;;;;;;;;;;;20.10;56.00;;;;;;5054866;28;19920;-88
2022/11/01 03:21:41;;;;;;;;;;;20.10;56.00;;;;;;5053481;28;19913;-89
2022/11/01 03:24:10;;;;;;;;;;;20.10;56.00;;;;;;5053452;28;19921;-88
2022/11/01 03:26:37;;;;;;;;;;;20.20;55.80;;;;;;5056642;28;20391;-87
2022/11/01 03:29:05;;;;;;;;;;;20.20;55.80;;;;;;5056567;28;19932;-87
2022/11/01 03:31:32;;;;;;;;;;;20.20;55.60;;;;;;5054886;28;19916;-87
2022/11/01 03:34:11;;;;;;;;;;;20.20;55.50;;;;;;5074289;28;19972;-87
2022/11/01 03:36:44;;;;;;;;;;;20.30;55.50;;;;;;5075969;28;20359;-88
2022/11/01 03:39:15;;;;;;;;;;;20.30;55.50;;;;;;5075478;28;19916;-87
2022/11/01 03:41:42;;;;;;;;;;;20.30;55.50;;;;;;5057386;28;19908;-89
2022/11/01 03:44:10;;;;;;;;;;;20.30;55.30;;;;;;5057735;28;19970;-87
2022/11/01 03:46:36;;;;;;;;;;;20.30;55.30;;;;;;5053026;28;20359;-89
2022/11/01 03:49:01;;;;;;;;;;;20.30;55.20;;;;;;5054410;28;19932;-88
2022/11/01 03:51:27;;;;;;;;;;;20.30;55.10;;;;;;5065239;28;20051;-89
2022/11/01 03:53:53;;;;;;;;;;;20.40;55.10;;;;;;5052339;28;19920;-89
2022/11/01 03:56:19;;;;;;;;;;;20.50;55.00;;;;;;5068354;28;19914;-87
2022/11/01 03:58:46;;;;;;;;;;;20.50;54.90;;;;;;5072927;28;19974;-89
2022/11/01 04:01:12;;;;;;;;;;;20.50;54.90;;;;;;5074106;28;19934;-88
2022/11/01 04:03:38;;;;;;;;;;;20.50;54.80;;;;;;5071801;28;19920;-88
2022/11/01 04:06:04;;;;;;;;;;;20.60;54.70;;;;;;5075287;28;19920;-88
2022/11/01 04:08:29;;;;;;;;;;;20.60;54.60;;;;;;5060818;28;19917;-89
2022/11/01 04:10:55;;;;;;;;;;;20.70;54.60;;;;;;5054213;28;19913;-87
2022/11/01 04:13:21;;;;;;;;;;;20.70;54.60;;;;;;5053362;28;20261;-87
2022/11/01 04:21:17;;;;;;;;;;;20.70;54.40;;;;;;5072680;28;19959;-88
2022/11/01 04:23:43;;;;;;;;;;;20.70;54.40;;;;;;5065691;28;19936;-87
2022/11/01 04:26:10;;;;;;;;;;;20.70;54.30;;;;;;5062731;28;19920;-89
2022/11/01 04:28:36;;;;;;;;;;;20.70;54.30;;;;;;5075306;28;19912;-89
2022/11/01 04:31:02;;;;;;;;;;;20.80;54.20;;;;;;5076243;28;20260;-88
2022/11/01 04:33:28;;;;;;;;;;;20.80;54.10;;;;;;5069829;28;20386;-90
2022/11/01 04:35:54;;;;;;;;;;;20.80;54.00;;;;;;5065827;28;20051;-88
2022/11/01 04:38:20;;;;;;;;;;;20.90;54.00;;;;;;5064742;28;19963;-90
2022/11/01 04:40:48;;;;;;;;;;;21.00;53.90;;;;;;5070742;28;20283;-88
2022/11/01 04:43:14;;;;;;;;;;;21.00;53.80;;;;;;5062641;28;20423;-86
2022/11/01 04:45:40;;;;;;;;;;;21.00;53.70;;;;;;5060919;28;19921;-88
2022/11/01 04:48:15;;;;;;;;;;;21.10;53.50;;;;;;5052544;28;19917;-88
2022/11/01 04:50:41;;;;;;;;;;;21.10;53.30;;;;;;5061881;28;20011;-87
2022/11/01 04:53:07;;;;;;;;;;;21.00;53.20;;;;;;5061161;28;20416;-89
2022/11/01 04:55:32;;;;;;;;;;;21.00;53.20;;;;;;5063875;28;20371;-88
2022/11/01 04:57:58;;;;;;;;;;;21.00;53.10;;;;;;5053299;28;19909;-89
2022/11/01 05:00:24;;;;;;;;;;;21.00;53.20;;;;;;5069026;28;19954;-88
2022/11/01 05:02:50;;;;;;;;;;;21.00;53.10;;;;;;5071497;28;19908;-87
2022/11/01 05:05:16;;;;;;;;;;;20.90;53.00;;;;;;5072819;28;20012;-89
2022/11/01 05:07:42;;;;;;;;;;;20.90;53.10;;;;;;5072448;28;20407;-89
2022/11/01 05:10:08;;;;;;;;;;;20.80;53.10;;;;;;5071690;28;20023;-87
2022/11/01 05:12:34;;;;;;;;;;;20.80;53.20;;;;;;5071793;28;19908;-89
2022/11/01 05:15:00;;;;;;;;;;;20.80;53.20;;;;;;5058211;28;19917;-89
2022/11/01 05:17:28;;;;;;;;;;;20.80;53.30;;;;;;5053631;28;20379;-88
2022/11/01 05:19:53;;;;;;;;;;;20.80;53.30;;;;;;5052518;28;19931;-89
2022/11/01 05:22:19;;;;;;;;;;;20.70;53.30;;;;;;5050925;28;19966;-89
2022/11/01 05:24:44;;;;;;;;;;;20.70;53.40;;;;;;5052209;28;19927;-89
2022/11/01 05:27:15;;;;;;;;;;;20.70;53.50;;;;;;5059640;28;19927;-89
2022/11/01 05:29:41;;;;;;;;;;;20.70;53.60;;;;;;5054084;28;19925;-88
2022/11/01 05:32:06;;;;;;;;;;;20.70;53.50;;;;;;5072209;28;19920;-88
2022/11/01 05:34:32;;;;;;;;;;;20.70;53.60;;;;;;5065186;28;19989;-88
2022/11/01 05:36:58;;;;;;;;;;;20.70;53.70;;;;;;5069427;28;19938;-87
2022/11/01 05:39:26;;;;;;;;;;;20.70;53.80;;;;;;5067349;28;19925;-88
2022/11/01 05:41:52;;;;;;;;;;;20.70;53.90;;;;;;5055308;28;20011;-88
2022/11/01 05:44:18;;;;;;;;;;;20.70;54.00;;;;;;5069700;28;20015;-87
2022/11/01 05:46:43;;;;;;;;;;;20.80;54.00;;;;;;5071079;28;19913;-89
2022/11/01 05:49:09;;;;;;;;;;;20.80;53.90;;;;;;5070130;28;20349;-88
2022/11/01 05:51:36;;;;;;;;;;;20.90;53.70;;;;;;5072775;28;19928;-89
2022/11/01 05:54:01;;;;;;;;;;;20.90;53.70;;;;;;5055470;28;19917;-88
2022/11/01 05:56:27;;;;;;;;;;;20.90;53.60;;;;;;5055750;28;20209;-87
2022/11/01 05:58:53;;;;;;;;;;;20.90;53.70;;;;;;5053391;28;19917;-89
2022/11/01 06:01:20;;;;;;;;;;;20.90;53.60;;;;;;5054078;28;19917;-87
2022/11/01 06:03:51;;;;;;;;;;;20.90;53.60;;;;;;5057297;28;20280;-90
2022/11/01 06:06:16;;;;;;;;;;;21.00;53.60;;;;;;5057175;28;19920;-89
2022/11/01 06:08:42;;;;;;;;;;;21.00;53.60;;;;;;5068069;28;19916;-90
2022/11/01 06:11:08;;;;;;;;;;;21.00;53.60;;;;;;5054783;28;19952;-89
2022/11/01 06:13:34;;;;;;;;;;;21.00;53.60;;;;;;5062908;28;20422;-89
2022/11/01 06:16:03;;;;;;;;;;;21.10;53.50;;;;;;5054979;28;20002;-88
2022/11/01 06:18:29;;;;;;;;;;;21.10;53.60;;;;;;5066611;28;19921;-89
2022/11/01 06:20:58;;;;;;;;;;;21.10;53.60;;;;;;5060982;28;19923;-87
2022/11/01 06:23:23;;;;;;;;;;;21.20;53.60;;;;;;5052341;28;20020;-89
2022/11/01 06:25:49;;;;;;;;;;;21.30;53.40;;;;;;5049600;28;20419;-90
2022/11/01 06:28:15;;;;;;;;;;;21.30;53.30;;;;;;5062733;28;20406;-89
2022/11/01 06:30:42;;;;;;;;;;;21.30;53.20;;;;;;5049988;28;19928;-90
2022/11/01 06:33:08;;;;;;;;;;;21.40;53.20;;;;;;5054154;28;19952;-89
2022/11/01 06:35:34;;;;;;;;;;;21.30;53.10;;;;;;5051913;28;20359;-88
2022/11/01 06:38:01;;;;;;;;;;;21.40;53.10;;;;;;5053894;28;19919;-87
2022/11/01 06:40:27;;;;;;;;;;;21.40;53.10;;;;;;5065250;28;19923;-90
2022/11/01 06:42:57;;;;;;;;;;;21.40;53.10;;;;;;5051503;28;19913;-88
2022/11/01 06:45:22;;;;;;;;;;;21.50;53.00;;;;;;5050204;28;19953;-88
2022/11/01 06:47:48;;;;;;;;;;;21.50;53.00;;;;;;5062528;28;20334;-88
2022/11/01 06:50:15;;;;;;;;;;;21.60;52.90;;;;;;5057611;28;20399;-89
2022/11/01 06:52:40;;;;;;;;;;;21.60;52.80;;;;;;5055734;28;20253;-88
2022/11/01 06:55:06;;;;;;;;;;;21.70;52.80;;;;;;5053032;28;20552;-90
2022/11/01 06:57:32;;;;;;;;;;;21.70;52.70;;;;;;5054831;28;19921;-89
2022/11/01 06:59:57;;;;;;;;;;;21.70;52.70;;;;;;5054001;28;20036;-89
2022/11/01 07:02:24;;;;;;;;;;;21.80;52.60;;;;;;5050650;28;19939;-88
2022/11/01 07:04:50;;;;;;;;;;;21.80;52.60;;;;;;5056782;28;19947;-89
2022/11/01 07:07:15;;;;;;;;;;;21.80;52.50;;;;;;5063118;28;20004;-88
2022/11/01 07:09:41;;;;;;;;;;;21.90;52.60;;;;;;5056495;28;19928;-87
2022/11/01 07:12:10;;;;;;;;;;;21.90;52.50;;;;;;5056157;28;20236;-87
2022/11/01 07:14:36;;;;;;;;;;;21.90;52.40;;;;;;5050818;28;20328;-88
2022/11/01 07:17:01;;;;;;;;;;;22.00;52.40;;;;;;5049594;28;19913;-89
2022/11/01 07:19:27;;;;;;;;;;;22.00;52.40;;;;;;5064607;28;19928;-88
2022/11/01 07:21:52;;;;;;;;;;;22.00;52.40;;;;;;5060980;28;19912;-88
2022/11/01 07:24:18;;;;;;;;;;;22.10;52.40;;;;;;5049257;28;19921;-89
2022/11/01 07:26:44;;;;;;;;;;;22.10;52.50;;;;;;5060442;28;19913;-88
2022/11/01 07:29:10;;;;;;;;;;;22.10;52.40;;;;;;5052312;28;19929;-89
2022/11/01 07:31:37;;;;;;;;;;;22.10;52.30;;;;;;5051339;28;19996;-90
2022/11/01 07:34:06;;;;;;;;;;;22.20;52.30;;;;;;5053159;28;20271;-89
2022/11/01 07:36:34;;;;;;;;;;;22.30;52.20;;;;;;5057042;28;19919;-89
2022/11/01 07:38:59;;;;;;;;;;;22.30;52.20;;;;;;5067488;28;19917;-88
2022/11/01 07:41:28;;;;;;;;;;;22.40;52.10;;;;;;5058654;28;19920;-90
2022/11/01 07:43:54;;;;;;;;;;;22.40;52.00;;;;;;5065944;28;19921;-90
2022/11/01 07:46:20;;;;;;;;;;;22.50;51.90;;;;;;5059981;28;19913;-90
2022/11/01 07:48:45;;;;;;;;;;;22.60;51.80;;;;;;5063052;28;20003;-90
2022/11/01 07:51:11;;;;;;;;;;;22.70;51.50;;;;;;5058056;28;19916;-90
2022/11/01 07:53:37;;;;;;;;;;;22.70;51.30;;;;;;5062825;28;19924;-90
2022/11/01 07:56:03;;;;;;;;;;;22.70;51.20;;;;;;5056382;28;20002;-88
2022/11/01 07:58:29;;;;;;;;;;;22.80;51.20;;;;;;5056207;28;19943;-89
2022/11/01 08:00:54;;;;;;;;;;;22.80;50.90;;;;;;5062156;28;19982;-88
2022/11/01 08:03:20;;;;;;;;;;;22.90;50.70;;;;;;5062875;28;19916;-88
2022/11/01 08:05:46;;;;;;;;;;;23.00;50.40;;;;;;5066230;28;19913;-88
2022/11/01 08:08:13;;;;;;;;;;;23.10;50.20;;;;;;5063277;28;19919;-89
2022/11/01 08:10:39;;;;;;;;;;;23.10;50.10;;;;;;5058811;28;19956;-88
2022/11/01 08:13:15;;;;;;;;;;;23.20;50.00;;;;;;5062626;28;20302;-89
2022/11/01 08:15:41;;;;;;;;;;;23.30;49.90;;;;;;5057276;28;19982;-90
2022/11/01 08:18:07;;;;;;;;;;;23.40;49.70;;;;;;5052540;28;19916;-88
2022/11/01 08:20:32;;;;;;;;;;;23.50;49.60;;;;;;5062675;28;19919;-89
2022/11/01 08:22:58;;;;;;;;;;;23.60;49.40;;;;;;5055932;28;19916;-89
2022/11/01 08:25:29;;;;;;;;;;;23.70;49.20;;;;;;5061368;28;20135;-89
2022/11/01 08:27:59;;;;;;;;;;;23.80;49.10;;;;;;5068719;28;19919;-88
2022/11/01 08:30:24;;;;;;;;;;;23.80;49.10;;;;;;5055241;28;20392;-89
2022/11/01 08:32:56;;;;;;;;;;;23.90;48.90;;;;;;5062145;28;19920;-90
2022/11/01 08:35:22;;;;;;;;;;;24.00;48.80;;;;;;5055699;28;19924;-88
2022/11/01 08:37:48;;;;;;;;;;;24.00;48.70;;;;;;5062324;28;19954;-90
2022/11/01 08:40:14;;;;;;;;;;;24.00;48.60;;;;;;5060026;28;19917;-88
2022/11/01 08:42:40;;;;;;;;;;;24.00;48.50;;;;;;5058142;28;20421;-88
2022/11/01 08:45:05;;;;;;;;;;;24.00;48.50;;;;;;5058963;28;19927;-89
2022/11/01 08:47:31;;;;;;;;;;;24.00;48.20;;;;;;5063822;28;20312;-88
2022/11/01 08:49:57;;;;;;;;;;;24.00;48.00;;;;;;5056031;28;20059;-88
2022/11/01 08:52:24;;;;;;;;;;;23.90;47.60;;;;;;5056898;28;19917;-88
2022/11/01 08:54:49;;;;;;;;;;;23.90;46.90;;;;;;5052634;28;20290;-88
2022/11/01 08:57:15;;;;;;;;;;;23.80;46.80;;;;;;5069227;28;20388;-89
2022/11/01 08:59:40;;;;;;;;;;;23.70;45.90;;;;;;5067911;28;19921;-88
2022/11/01 09:02:09;;;;;;;;;;;23.80;45.20;;;;;;5053915;28;19909;-90
2022/11/01 09:04:35;;;;;;;;;;;23.90;44.60;;;;;;5051054;28;20370;-89
2022/11/01 09:07:00;;;;;;;;;;;24.00;44.40;;;;;;5052184;28;19948;-87
2022/11/01 09:09:26;;;;;;;;;;;24.10;43.20;;;;;;5052696;28;20361;-87
2022/11/01 09:11:52;;;;;;;;;;;24.10;43.00;;;;;;5068869;28;20423;-88
2022/11/01 09:14:22;;;;;;;;;;;24.20;42.30;;;;;;5070239;28;19920;-88
2022/11/01 09:16:48;;;;;;;;;;;24.40;42.10;;;;;;5071012;28;19913;-88
2022/11/01 09:19:13;;;;;;;;;;;24.80;41.90;;;;;;5066577;28;19926;-88
2022/11/01 09:21:39;;;;;;;;;;;25.30;41.60;;;;;;5066772;28;19970;-90
2022/11/01 09:24:05;;;;;;;;;;;25.70;39.20;;;;;;5069157;28;19924;-87
2022/11/01 09:26:31;;;;;;;;;;;26.00;38.10;;;;;;5071836;28;19916;-87
2022/11/01 09:28:57;;;;;;;;;;;26.30;36.20;;;;;;5067971;28;20040;-87
2022/11/01 09:31:23;;;;;;;;;;;26.70;35.20;;;;;;5069533;28;19921;-89
2022/11/01 09:33:49;;;;;;;;;;;26.90;34.60;;;;;;5067650;28;19912;-87
2022/11/01 09:36:14;;;;;;;;;;;27.30;34.60;;;;;;5068290;28;19920;-88
2022/11/01 09:38:40;;;;;;;;;;;27.60;32.90;;;;;;5067847;28;19920;-88
2022/11/01 09:41:10;;;;;;;;;;;27.80;32.40;;;;;;5067536;28;19920;-88
2022/11/01 09:43:38;;;;;;;;;;;27.90;30.30;;;;;;5058811;28;19921;-88
2022/11/01 09:46:05;;;;;;;;;;;28.00;30.20;;;;;;5048554;28;20363;-89
2022/11/01 09:48:32;;;;;;;;;;;28.20;30.40;;;;;;5068789;28;19916;-90
2022/11/01 09:51:01;;;;;;;;;;;28.30;29.70;;;;;;5068273;28;19928;-89
2022/11/01 09:53:28;;;;;;;;;;;28.40;29.10;;;;;;5067172;28;19924;-88
2022/11/01 09:56:09;;;;;;;;;;;28.50;28.60;;;;;;5066940;28;19923;-89
2022/11/01 09:58:34;;;;;;;;;;;28.70;28.60;;;;;;5068451;28;20065;-88
2022/11/01 10:01:00;;;;;;;;;;;28.70;27.90;;;;;;5067851;28;19958;-88
2022/11/01 10:03:41;;;;;;;;;;;28.80;27.60;;;;;;5067061;28;20325;-89
2022/11/01 10:06:15;;;;;;;;;;;28.80;27.70;;;;;;5067027;28;20383;-89
2022/11/01 10:08:59;;;;;;;;;;;28.90;27.60;;;;;;5067896;28;19921;-87
2022/11/01 10:11:33;;;;;;;;;;;28.90;27.40;;;;;;5066914;28;19925;-91
2022/11/01 10:14:03;;;;;;;;;;;29.00;27.60;;;;;;5066842;28;19959;-88
2022/11/01 10:16:34;;;;;;;;;;;29.10;27.30;;;;;;5066576;28;19924;-88
2022/11/01 10:19:10;;;;;;;;;;;29.20;27.30;;;;;;5068104;28;19924;-90
2022/11/01 10:21:41;;;;;;;;;;;29.30;27.30;;;;;;5066480;28;19917;-89
2022/11/01 10:24:15;;;;;;;;;;;29.40;27.30;;;;;;5061446;28;19932;-90
2022/11/01 10:26:49;;;;;;;;;;;29.60;26.90;;;;;;5055255;28;19951;-89
2022/11/01 10:29:19;;;;;;;;;;;29.70;26.90;;;;;;5057203;28;20922;-90
2022/11/01 10:31:46;;;;;;;;;;;29.70;26.70;;;;;;5056411;28;19927;-88
2022/11/01 10:34:44;;;;;;;;;;;29.80;26.80;;;;;;5069196;28;19912;-89
2022/11/01 10:37:15;;;;;;;;;;;29.80;26.20;;;;;;5046916;28;20441;-89
2022/11/01 10:39:47;;;;;;;;;;;29.90;26.00;;;;;;5054950;28;20365;-90
2022/11/01 10:42:14;;;;;;;;;;;29.80;26.10;;;;;;5077828;28;19920;-89
2022/11/01 10:44:46;;;;;;;;;;;29.90;26.10;;;;;;5072308;28;19927;-89
2022/11/01 10:47:15;;;;;;;;;;;29.90;25.80;;;;;;5069098;28;19919;-87
2022/11/01 10:50:02;;;;;;;;;;;29.90;25.90;;;;;;5052002;28;19958;-90
2022/11/01 10:52:30;;;;;;;;;;;29.80;25.50;;;;;;5068727;28;20442;-89
2022/11/01 10:54:57;;;;;;;;;;;29.70;25.20;;;;;;5070078;28;19920;-90
2022/11/01 10:57:28;;;;;;;;;;;29.60;24.90;;;;;;5063819;28;19923;-89
2022/11/01 10:59:55;;;;;;;;;;;29.40;25.30;;;;;;5055658;28;19919;-89
2022/11/01 11:02:24;;;;;;;;;;;29.40;25.60;;;;;;5069874;28;19912;-88
2022/11/01 11:04:50;;;;;;;;;;;29.30;25.60;;;;;;5056008;28;19912;-88
2022/11/01 11:07:18;;;;;;;;;;;29.30;25.90;;;;;;5053493;28;20331;-89
2022/11/01 11:09:46;;;;;;;;;;;29.30;26.10;;;;;;5049149;28;20306;-89
2022/11/01 11:12:22;;;;;;;;;;;29.30;26.00;;;;;;5064968;28;20428;-91
2022/11/01 11:14:50;;;;;;;;;;;29.30;25.70;;;;;;5072992;28;19916;-89
2022/11/01 11:17:24;;;;;;;;;;;29.20;25.70;;;;;;5093107;28;20241;-89
2022/11/01 11:19:55;;;;;;;;;;;29.20;25.80;;;;;;5071947;28;19913;-89
2022/11/01 11:22:35;;;;;;;;;;;29.10;25.80;;;;;;5073704;28;19974;-88
2022/11/01 11:25:01;;;;;;;;;;;29.00;25.80;;;;;;5071809;28;20029;-88
2022/11/01 11:27:28;;;;;;;;;;;28.90;25.90;;;;;;5072620;28;19924;-89
2022/11/01 11:29:56;;;;;;;;;;;29.00;26.10;;;;;;5064429;28;20046;-89
2022/11/01 11:32:32;;;;;;;;;;;29.00;26.40;;;;;;5054730;28;19916;-89
2022/11/01 11:35:00;;;;;;;;;;;29.00;26.30;;;;;;5070576;28;20019;-88
2022/11/01 11:37:28;;;;;;;;;;;29.10;26.20;;;;;;5071245;28;19931;-88
2022/11/01 11:39:59;;;;;;;;;;;29.10;26.40;;;;;;5064368;28;19952;-89
2022/11/01 11:42:25;;;;;;;;;;;29.10;26.50;;;;;;5069821;28;19916;-89
2022/11/01 11:45:04;;;;;;;;;;;29.00;26.30;;;;;;5065312;28;19924;-88
2022/11/01 11:47:34;;;;;;;;;;;28.90;26.10;;;;;;5068205;28;19917;-88
2022/11/01 11:50:31;;;;;;;;;;;28.80;26.20;;;;;;5060128;28;19928;-89
2022/11/01 11:52:59;;;;;;;;;;;28.70;26.50;;;;;;5070259;28;19959;-87
2022/11/01 11:55:26;;;;;;;;;;;28.70;26.80;;;;;;5069672;28;19924;-89
2022/11/01 11:57:56;;;;;;;;;;;28.60;26.50;;;;;;5070701;28;19999;-89
2022/11/01 12:00:22;;;;;;;;;;;28.50;26.50;;;;;;5069053;28;19963;-90
2022/11/01 12:02:48;;;;;;;;;;;28.40;26.80;;;;;;5070646;28;19921;-88
2022/11/01 12:05:16;;;;;;;;;;;28.40;26.90;;;;;;5071359;28;19908;-92
2022/11/01 12:07:48;;;;;;;;;;;28.40;27.10;;;;;;5070422;28;19920;-87
2022/11/01 12:10:28;;;;;;;;;;;28.30;26.80;;;;;;5054625;28;19925;-89
2022/11/01 12:12:55;;;;;;;;;;;28.20;27.10;;;;;;5052397;28;20259;-88
2022/11/01 12:15:34;;;;;;;;;;;28.00;27.30;;;;;;5051297;28;19921;-90
2022/11/01 12:18:12;;;;;;;;;;;27.70;27.30;;;;;;5062537;28;19921;-90
2022/11/01 12:20:38;;;;;;;;;;;27.10;27.50;;;;;;5059802;28;19916;-88
2022/11/01 12:23:12;;;;;;;;;;;26.60;28.10;;;;;;5055864;28;19917;-90
2022/11/01 12:25:40;;;;;;;;;;;26.20;28.60;;;;;;5064129;28;20267;-90
2022/11/01 12:28:18;;;;;;;;;;;25.80;29.20;;;;;;5062000;28;19917;-87
2022/11/01 12:30:44;;;;;;;;;;;25.50;29.50;;;;;;5070506;28;19949;-88
2022/11/01 12:33:18;;;;;;;;;;;25.20;29.80;;;;;;5069444;28;19913;-90
2022/11/01 12:35:48;;;;;;;;;;;24.90;30.10;;;;;;5071549;28;19912;-91
2022/11/01 12:38:27;;;;;;;;;;;24.40;30.40;;;;;;5063542;28;19951;-89
2022/11/01 12:40:53;;;;;;;;;;;24.30;30.80;;;;;;5054215;28;19923;-88
2022/11/01 12:43:28;;;;;;;;;;;24.20;31.00;;;;;;5053568;28;19917;-87
2022/11/01 12:46:11;;;;;;;;;;;24.00;31.30;;;;;;5066151;28;19997;-88
2022/11/01 12:48:42;;;;;;;;;;;23.80;31.50;;;;;;5070344;28;19970;-89
2022/11/01 12:51:19;;;;;;;;;;;23.80;31.80;;;;;;5051553;28;19964;-89
2022/11/01 12:53:51;;;;;;;;;;;23.80;32.10;;;;;;5054424;28;20329;-88
2022/11/01 12:56:17;;;;;;;;;;;23.70;32.30;;;;;;5068229;28;20328;-87
2022/11/01 12:58:43;;;;;;;;;;;23.70;32.50;;;;;;5066789;28;19920;-89
2022/11/01 13:01:25;;;;;;;;;;;23.70;32.70;;;;;;5060437;28;19991;-89
2022/11/01 13:04:01;;;;;;;;;;;23.60;32.70;;;;;;5063968;28;19927;-89
2022/11/01 13:06:45;;;;;;;;;;;23.50;32.80;;;;;;5066422;28;19913;-88
2022/11/01 13:09:23;;;;;;;;;;;23.50;32.90;;;;;;5070488;28;19929;-91
2022/11/01 13:11:48;;;;;;;;;;;23.40;33.00;;;;;;5070602;28;19936;-89
2022/11/01 13:14:17;;;;;;;;;;;23.40;33.10;;;;;;5069399;28;19920;-90
2022/11/01 13:16:46;;;;;;;;;;;23.40;33.20;;;;;;5069518;28;19913;-89
2022/11/01 13:19:16;;;;;;;;;;;23.40;33.30;;;;;;5068425;28;20303;-89
2022/11/01 13:22:07;;;;;;;;;;;23.40;33.20;;;;;;5071717;28;19912;-87
2022/11/01 13:24:38;;;;;;;;;;;23.30;33.40;;;;;;5065598;28;19927;-88
2022/11/01 13:27:17;;;;;;;;;;;23.40;33.30;;;;;;5068820;28;20371;-90
2022/11/01 13:29:58;;;;;;;;;;;23.30;33.40;;;;;;5067902;28;19962;-90
2022/11/01 13:32:46;;;;;;;;;;;23.30;33.50;;;;;;5068026;28;19982;-88
2022/11/01 13:35:35;;;;;;;;;;;23.30;33.70;;;;;;5048529;28;20101;-89
2022/11/01 13:38:19;;;;;;;;;;;23.30;33.70;;;;;;5052868;28;20339;-89
2022/11/01 13:40:55;;;;;;;;;;;23.30;33.80;;;;;;5047760;28;19920;-90
2022/11/01 13:43:28;;;;;;;;;;;23.30;33.60;;;;;;5049499;28;20046;-89
2022/11/01 13:46:15;;;;;;;;;;;23.30;33.80;;;;;;5063725;28;19917;-90
2022/11/01 13:48:45;;;;;;;;;;;23.20;33.70;;;;;;5070345;28;19908;-89
2022/11/01 13:51:26;;;;;;;;;;;23.10;33.70;;;;;;5068829;28;19932;-90
2022/11/01 13:54:02;;;;;;;;;;;23.10;33.70;;;;;;5069714;28;19912;-90
2022/11/01 13:56:39;;;;;;;;;;;23.10;33.80;;;;;;5067677;28;20613;-88
2022/11/01 13:59:27;;;;;;;;;;;23.10;33.80;;;;;;5067821;28;20272;-90
2022/11/01 14:01:53;;;;;;;;;;;23.00;33.80;;;;;;5068279;28;20361;-88
2022/11/01 14:04:22;;;;;;;;;;;23.00;33.80;;;;;;5067435;28;20351;-87
2022/11/01 14:07:07;;;;;;;;;;;23.00;33.90;;;;;;5070075;28;19921;-89
2022/11/01 14:09:40;;;;;;;;;;;23.00;33.90;;;;;;5069354;28;19920;-87
2022/11/01 14:12:06;;;;;;;;;;;22.90;34.00;;;;;;5068998;28;19916;-88
2022/11/01 14:14:32;;;;;;;;;;;22.90;34.00;;;;;;5067315;28;19923;-89
2022/11/01 14:17:17;;;;;;;;;;;22.80;34.00;;;;;;5070057;28;19920;-89
2022/11/01 14:19:46;;;;;;;;;;;22.80;33.90;;;;;;5056782;28;20402;-88
2022/11/01 14:22:20;;;;;;;;;;;22.80;33.90;;;;;;5069108;28;19917;-89
2022/11/01 14:24:51;;;;;;;;;;;22.80;33.90;;;;;;5066841;28;20442;-87
2022/11/01 14:27:18;;;;;;;;;;;22.80;34.00;;;;;;5069431;28;19925;-88
2022/11/01 14:29:48;;;;;;;;;;;22.70;34.10;;;;;;5067710;28;19920;-90
2022/11/01 14:32:14;;;;;;;;;;;22.70;34.10;;;;;;5067571;28;20026;-86
2022/11/01 14:34:44;;;;;;;;;;;22.70;34.10;;;;;;5067786;28;19920;-87